Asian Empire — 3FQF8 — position and weather

sailwx.info

Track history (hours):
 
Tides and Currents Weather Stations Pressure Air Temp Water Temp Dewpoint Dewpoint Depression Visibility Wind Speed Wind Dir Waves Ship Positions

Asian Empire

Last reported at 2017-Aug-05 10:53 UTC. Time now 2017-Aug-19 09:15 UTC.
Position N 37°50' E 025°42'.
Warning: this ship's position is 13 days out of date.

Length 229 m; draft 8.2 m.

Type: Cargo ship. MMSI: 245087096.

Date/timePositionNaut miles runAvg speedWind from/ knotsBaromVisibWave heightAir tempDewpointWater temp
2017-Aug-05 10:53N 37°50' E 025°42'3 7.6
2017-Aug-05 10:30N 37°48' E 025°40'4 7.4
2017-Aug-05 10:00N 37°46' E 025°36'4 7.3
2017-Aug-05 09:30N 37°43' E 025°33'4 7.2
2017-Aug-05 09:00N 37°41' E 025°29'4 7.1
2017-Aug-05 08:30N 37°38' E 025°26'4 7.0
2017-Aug-05 08:00N 37°36' E 025°23'3 6.9
2017-Aug-05 07:30N 37°34' E 025°20'3 6.8
2017-Aug-05 07:00N 37°32' E 025°16'4 6.9
2017-Aug-05 06:29N 37°29' E 025°13'3 6.6
2017-Aug-05 06:00N 37°27' E 025°10'3 6.3
2017-Aug-05 05:30N 37°24' E 025°08'3 6.7
2017-Aug-05 05:00N 37°21' E 025°08'4 6.0
2017-Aug-05 04:24N 37°19' E 025°04'2 6.0
2017-Aug-05 04:00N 37°18' E 025°02'3 6.7
2017-Aug-05 03:30N 37°16' E 024°58'4 7.0
2017-Aug-05 03:00N 37°14' E 024°54'4 7.1
2017-Aug-05 02:30N 37°12' E 024°51'201 6.4
2017-Aug-03 18:56N 37°14' E 020°38'16 8.0
2017-Aug-03 16:55N 37°25' E 020°23'3 7.9
2017-Aug-03 16:30N 37°27' E 020°19'4 8.0
2017-Aug-03 16:00N 37°29' E 020°15'62 8.1
2017-Aug-03 08:19N 38°08' E 019°14'3 8.2
2017-Aug-03 07:59N 38°10' E 019°11'4 7.9
2017-Aug-03 07:30N 38°12' E 019°08'4 7.8
2017-Aug-03 07:00N 38°15' E 019°04'5 8.1
2017-Aug-03 06:25N 38°18' E 018°59'3 8.1
2017-Aug-03 06:00N 38°20' E 018°56'4 8.0
2017-Aug-03 05:30N 38°22' E 018°52'4 8.0
2017-Aug-03 05:00N 38°25' E 018°48'4 8.0
2017-Aug-03 04:30N 38°28' E 018°44'4 7.9
2017-Aug-03 04:00N 38°30' E 018°40'4 7.9
2017-Aug-03 03:30N 38°33' E 018°36'4 7.9
2017-Aug-03 03:00N 38°35' E 018°32'4 7.8
2017-Aug-03 02:30N 38°37' E 018°28'4 7.9
2017-Aug-03 02:00N 38°40' E 018°25'4 8.0
2017-Aug-03 01:30N 38°42' E 018°20'4 8.2
2017-Aug-03 00:59N 38°45' E 018°16'4 8.2
2017-Aug-03 00:30N 38°48' E 018°12'5 8.3
2017-Aug-02 23:54N 38°51' E 018°07'9 8.5
2017-Aug-02 22:51N 38°56' E 017°58'3 8.5
2017-Aug-02 22:30N 38°58' E 017°55'4 8.5
2017-Aug-02 22:00N 39°01' E 017°51'4 8.3
2017-Aug-02 21:30N 39°03' E 017°47'6 8.5
2017-Aug-02 20:49N 39°07' E 017°41'3 8.5
2017-Aug-02 20:30N 39°09' E 017°39'17 8.4
2017-Aug-02 18:28N 39°20' E 017°22'4 8.1
2017-Aug-02 17:58N 39°23' E 017°18'4 7.9
2017-Aug-02 17:29N 39°25' E 017°14'4 7.7
2017-Aug-02 17:00N 39°28' E 017°11'4 7.7
2017-Aug-02 16:30N 39°30' E 017°07'4 7.8
2017-Aug-02 16:00N 39°32' E 017°02'4 7.8
2017-Aug-02 15:26N 39°35' E 016°58'4 7.9
2017-Aug-02 14:56N 39°37' E 016°54'7 7.6
2017-Aug-02 14:00N 39°39' E 016°45'4 8.2
2017-Aug-02 13:30N 39°40' E 016°40'4 7.5
2017-Aug-02 12:56N 39°41' E 016°34'2 4.7
2017-Aug-02 12:30N 39°40' E 016°31'0 0.4
2017-Aug-02 12:00N 39°40' E 016°32'0 0.0
2017-Aug-02 11:12N 39°40' E 016°32'0 0.0
2017-Aug-02 11:00N 39°40' E 016°32'0 0.0
2017-Aug-02 10:30N 39°40' E 016°32'0 0.0
2017-Aug-02 09:18N 39°40' E 016°32'0 0.0
2017-Aug-02 09:00N 39°40' E 016°32'0 0.0
2017-Aug-02 08:30N 39°40' E 016°32'0 0.0
2017-Aug-02 07:54N 39°40' E 016°32'0 0.0
2017-Aug-02 07:30N 39°40' E 016°32'0 0.0
2017-Aug-02 07:00N 39°40' E 016°32'0 0.0
2017-Aug-02 06:18N 39°40' E 016°32'0 0.0
2017-Aug-02 05:57N 39°40' E 016°32'0 0.0
2017-Aug-02 04:00N 39°40' E 016°32'0 0.0
2017-Aug-02 03:30N 39°40' E 016°32'0 0.0
2017-Aug-02 02:57N 39°40' E 016°32'0 0.0
2017-Aug-02 02:27N 39°40' E 016°32'0 0.0
2017-Aug-02 02:00N 39°40' E 016°32'  
2017-Jul-29 09:06N 37°53' E 016°03'2 8.4
2017-Jul-29 08:51N 37°52' E 016°00'3 8.7
2017-Jul-29 08:30N 37°52' E 015°57'4 8.7
2017-Jul-29 08:00N 37°52' E 015°51'4 8.7
2017-Jul-29 07:30N 37°53' E 015°46'4 8.6
2017-Jul-29 07:00N 37°54' E 015°40'4 8.8
2017-Jul-29 06:30N 37°56' E 015°35'510.2
2017-Jul-29 06:00N 38°01' E 015°34'611.3
2017-Jul-29 05:30N 38°06' E 015°35'612.1
2017-Jul-29 05:00N 38°12' E 015°36'5 9.8
2017-Jul-29 04:30N 38°16' E 015°40'4 8.3
2017-Jul-29 04:00N 38°19' E 015°37'5 9.4
2017-Jul-29 03:30N 38°20' E 015°31'5 9.3
2017-Jul-29 03:00N 38°20' E 015°25'5 9.1
2017-Jul-29 02:30N 38°20' E 015°20'5 9.7
2017-Jul-29 02:00N 38°19' E 015°13'5 9.7
2017-Jul-29 01:30N 38°19' E 015°07'5 9.9
2017-Jul-29 01:00N 38°19' E 015°01'5 9.9
2017-Jul-29 00:30N 38°19' E 014°55'5 9.6
2017-Jul-29 00:00N 38°19' E 014°48'5 9.6
2017-Jul-28 23:30N 38°20' E 014°42'5 9.4
2017-Jul-28 23:00N 38°20' E 014°36'5 9.4
2017-Jul-28 22:30N 38°20' E 014°30'6 9.2
2017-Jul-28 21:53N 38°20' E 014°23'4 9.3
2017-Jul-28 21:28N 38°21' E 014°18'6 9.3
2017-Jul-28 20:50N 38°21' E 014°11'4 9.3
2017-Jul-28 20:28N 38°21' E 014°06'4 9.5
2017-Jul-28 20:00N 38°22' E 014°01'5 9.6
2017-Jul-28 19:30N 38°22' E 013°55'5 9.4
2017-Jul-28 19:00N 38°23' E 013°49'5 9.5
2017-Jul-28 18:30N 38°23' E 013°43'5 9.4
2017-Jul-28 18:00N 38°23' E 013°37'5 9.4
2017-Jul-28 17:30N 38°23' E 013°31'5 9.6
2017-Jul-28 17:00N 38°23' E 013°25'5 9.5
2017-Jul-28 16:31N 38°23' E 013°19'5 9.5
2017-Jul-28 15:59N 38°23' E 013°12'5 9.4
2017-Jul-28 15:30N 38°23' E 013°06'5 9.3
2017-Jul-28 15:01N 38°24' E 013°01'5 9.3
2017-Jul-28 14:31N 38°24' E 012°55'5 9.4
2017-Jul-28 13:59N 38°24' E 012°48'4 9.3
2017-Jul-28 13:30N 38°24' E 012°43'5 9.3
2017-Jul-28 13:00N 38°24' E 012°37'5 9.4
2017-Jul-28 12:30N 38°24' E 012°31'5 9.5
2017-Jul-28 11:59N 38°24' E 012°24'31 9.7
2017-Jul-28 08:50N 38°26' E 011°45'40 9.5
2017-Jul-28 04:37N 38°28' E 010°54'30 9.5
2017-Jul-28 01:27N 38°29' E 010°16'12 9.1
2017-Jul-28 00:10N 38°30' E 010°01'2 9.2
2017-Jul-27 23:58N 38°30' E 009°58'5 9.3
2017-Jul-27 23:24N 38°30' E 009°52'4 8.8
2017-Jul-27 22:58N 38°31' E 009°47'4 8.4
2017-Jul-27 22:30N 38°32' E 009°42'4 8.4
2017-Jul-27 22:00N 38°34' E 009°37'4 8.3
2017-Jul-27 21:30N 38°36' E 009°32'4 8.6
2017-Jul-27 21:00N 38°37' E 009°27'4 8.8
2017-Jul-27 20:30N 38°39' E 009°22'5 9.0
2017-Jul-27 20:00N 38°41' E 009°17'5 9.1
2017-Jul-27 19:30N 38°43' E 009°12'4 9.1
2017-Jul-27 19:00N 38°45' E 009°07'5 9.4
2017-Jul-27 18:30N 38°47' E 009°01'5 9.6
2017-Jul-27 18:00N 38°48' E 008°55'5 9.3
2017-Jul-27 17:30N 38°48' E 008°49'4 8.8
2017-Jul-27 17:00N 38°48' E 008°43'222 8.1
2017-Jul-26 13:35N 38°54' E 003°59'2 9.6
2017-Jul-26 13:20N 38°54' E 003°56'3 9.5
2017-Jul-26 13:00N 38°54' E 003°52'5 9.5
2017-Jul-26 12:30N 38°55' E 003°45'5 9.6
2017-Jul-26 12:00N 38°55' E 003°39'5 9.6
2017-Jul-26 11:30N 38°55' E 003°33'5 9.6
2017-Jul-26 10:59N 38°56' E 003°27'  
Track history (hours):
 
Tides and Currents Weather Stations Pressure Air Temp Water Temp Dewpoint Dewpoint Depression Visibility Wind Speed Wind Dir Waves Ship Positions

Asian Empire

Last reported at 2017-Aug-05 10:53 UTC. Time now 2017-Aug-19 09:15 UTC.
Position N 37°50' E 025°42'.
Warning: this ship's position is 13 days out of date.

Length 229 m; draft 8.2 m.

Type: Cargo ship. MMSI: 245087096.

Date/timePositionNaut miles runAvg speedWind from/ knotsBaromVisibWave heightAir tempDewpointWater temp
2017-Aug-05 10:53N 37°50' E 025°42'3 7.6
2017-Aug-05 10:30N 37°48' E 025°40'4 7.4
2017-Aug-05 10:00N 37°46' E 025°36'4 7.3
2017-Aug-05 09:30N 37°43' E 025°33'4 7.2
2017-Aug-05 09:00N 37°41' E 025°29'4 7.1
2017-Aug-05 08:30N 37°38' E 025°26'4 7.0
2017-Aug-05 08:00N 37°36' E 025°23'3 6.9
2017-Aug-05 07:30N 37°34' E 025°20'3 6.8
2017-Aug-05 07:00N 37°32' E 025°16'4 6.9
2017-Aug-05 06:29N 37°29' E 025°13'3 6.6
2017-Aug-05 06:00N 37°27' E 025°10'3 6.3
2017-Aug-05 05:30N 37°24' E 025°08'3 6.7
2017-Aug-05 05:00N 37°21' E 025°08'4 6.0
2017-Aug-05 04:24N 37°19' E 025°04'2 6.0
2017-Aug-05 04:00N 37°18' E 025°02'3 6.7
2017-Aug-05 03:30N 37°16' E 024°58'4 7.0
2017-Aug-05 03:00N 37°14' E 024°54'4 7.1
2017-Aug-05 02:30N 37°12' E 024°51'201 6.4
2017-Aug-03 18:56N 37°14' E 020°38'16 8.0
2017-Aug-03 16:55N 37°25' E 020°23'3 7.9
2017-Aug-03 16:30N 37°27' E 020°19'4 8.0
2017-Aug-03 16:00N 37°29' E 020°15'62 8.1
2017-Aug-03 08:19N 38°08' E 019°14'3 8.2
2017-Aug-03 07:59N 38°10' E 019°11'4 7.9
2017-Aug-03 07:30N 38°12' E 019°08'4 7.8
2017-Aug-03 07:00N 38°15' E 019°04'5 8.1
2017-Aug-03 06:25N 38°18' E 018°59'3 8.1
2017-Aug-03 06:00N 38°20' E 018°56'4 8.0
2017-Aug-03 05:30N 38°22' E 018°52'4 8.0
2017-Aug-03 05:00N 38°25' E 018°48'4 8.0
2017-Aug-03 04:30N 38°28' E 018°44'4 7.9
2017-Aug-03 04:00N 38°30' E 018°40'4 7.9
2017-Aug-03 03:30N 38°33' E 018°36'4 7.9
2017-Aug-03 03:00N 38°35' E 018°32'4 7.8
2017-Aug-03 02:30N 38°37' E 018°28'4 7.9
2017-Aug-03 02:00N 38°40' E 018°25'4 8.0
2017-Aug-03 01:30N 38°42' E 018°20'4 8.2
2017-Aug-03 00:59N 38°45' E 018°16'4 8.2
2017-Aug-03 00:30N 38°48' E 018°12'5 8.3
2017-Aug-02 23:54N 38°51' E 018°07'9 8.5
2017-Aug-02 22:51N 38°56' E 017°58'3 8.5
2017-Aug-02 22:30N 38°58' E 017°55'4 8.5
2017-Aug-02 22:00N 39°01' E 017°51'4 8.3
2017-Aug-02 21:30N 39°03' E 017°47'6 8.5
2017-Aug-02 20:49N 39°07' E 017°41'3 8.5
2017-Aug-02 20:30N 39°09' E 017°39'17 8.4
2017-Aug-02 18:28N 39°20' E 017°22'4 8.1
2017-Aug-02 17:58N 39°23' E 017°18'4 7.9
2017-Aug-02 17:29N 39°25' E 017°14'4 7.7
2017-Aug-02 17:00N 39°28' E 017°11'4 7.7
2017-Aug-02 16:30N 39°30' E 017°07'4 7.8
2017-Aug-02 16:00N 39°32' E 017°02'4 7.8
2017-Aug-02 15:26N 39°35' E 016°58'4 7.9
2017-Aug-02 14:56N 39°37' E 016°54'7 7.6
2017-Aug-02 14:00N 39°39' E 016°45'4 8.2
2017-Aug-02 13:30N 39°40' E 016°40'4 7.5
2017-Aug-02 12:56N 39°41' E 016°34'2 4.7
2017-Aug-02 12:30N 39°40' E 016°31'0 0.4
2017-Aug-02 12:00N 39°40' E 016°32'0 0.0
2017-Aug-02 11:12N 39°40' E 016°32'0 0.0
2017-Aug-02 11:00N 39°40' E 016°32'0 0.0
2017-Aug-02 10:30N 39°40' E 016°32'0 0.0
2017-Aug-02 09:18N 39°40' E 016°32'0 0.0
2017-Aug-02 09:00N 39°40' E 016°32'0 0.0
2017-Aug-02 08:30N 39°40' E 016°32'0 0.0
2017-Aug-02 07:54N 39°40' E 016°32'0 0.0
2017-Aug-02 07:30N 39°40' E 016°32'0 0.0
2017-Aug-02 07:00N 39°40' E 016°32'0 0.0
2017-Aug-02 06:18N 39°40' E 016°32'0 0.0
2017-Aug-02 05:57N 39°40' E 016°32'0 0.0
2017-Aug-02 04:00N 39°40' E 016°32'0 0.0
2017-Aug-02 03:30N 39°40' E 016°32'0 0.0
2017-Aug-02 02:57N 39°40' E 016°32'0 0.0
2017-Aug-02 02:27N 39°40' E 016°32'0 0.0
2017-Aug-02 02:00N 39°40' E 016°32'  
2017-Jul-29 09:06N 37°53' E 016°03'2 8.4
2017-Jul-29 08:51N 37°52' E 016°00'3 8.7
2017-Jul-29 08:30N 37°52' E 015°57'4 8.7
2017-Jul-29 08:00N 37°52' E 015°51'4 8.7
2017-Jul-29 07:30N 37°53' E 015°46'4 8.6
2017-Jul-29 07:00N 37°54' E 015°40'4 8.8
2017-Jul-29 06:30N 37°56' E 015°35'510.2
2017-Jul-29 06:00N 38°01' E 015°34'611.3
2017-Jul-29 05:30N 38°06' E 015°35'612.1
2017-Jul-29 05:00N 38°12' E 015°36'5 9.8
2017-Jul-29 04:30N 38°16' E 015°40'4 8.3
2017-Jul-29 04:00N 38°19' E 015°37'5 9.4
2017-Jul-29 03:30N 38°20' E 015°31'5 9.3
2017-Jul-29 03:00N 38°20' E 015°25'5 9.1
2017-Jul-29 02:30N 38°20' E 015°20'5 9.7
2017-Jul-29 02:00N 38°19' E 015°13'5 9.7
2017-Jul-29 01:30N 38°19' E 015°07'5 9.9
2017-Jul-29 01:00N 38°19' E 015°01'5 9.9
2017-Jul-29 00:30N 38°19' E 014°55'5 9.6
2017-Jul-29 00:00N 38°19' E 014°48'5 9.6
2017-Jul-28 23:30N 38°20' E 014°42'5 9.4
2017-Jul-28 23:00N 38°20' E 014°36'5 9.4
2017-Jul-28 22:30N 38°20' E 014°30'6 9.2
2017-Jul-28 21:53N 38°20' E 014°23'4 9.3
2017-Jul-28 21:28N 38°21' E 014°18'6 9.3
2017-Jul-28 20:50N 38°21' E 014°11'4 9.3
2017-Jul-28 20:28N 38°21' E 014°06'4 9.5
2017-Jul-28 20:00N 38°22' E 014°01'5 9.6
2017-Jul-28 19:30N 38°22' E 013°55'5 9.4
2017-Jul-28 19:00N 38°23' E 013°49'5 9.5
2017-Jul-28 18:30N 38°23' E 013°43'5 9.4
2017-Jul-28 18:00N 38°23' E 013°37'5 9.4
2017-Jul-28 17:30N 38°23' E 013°31'5 9.6
2017-Jul-28 17:00N 38°23' E 013°25'5 9.5
2017-Jul-28 16:31N 38°23' E 013°19'5 9.5
2017-Jul-28 15:59N 38°23' E 013°12'5 9.4
2017-Jul-28 15:30N 38°23' E 013°06'5 9.3
2017-Jul-28 15:01N 38°24' E 013°01'5 9.3
2017-Jul-28 14:31N 38°24' E 012°55'5 9.4
2017-Jul-28 13:59N 38°24' E 012°48'4 9.3
2017-Jul-28 13:30N 38°24' E 012°43'5 9.3
2017-Jul-28 13:00N 38°24' E 012°37'5 9.4
2017-Jul-28 12:30N 38°24' E 012°31'5 9.5
2017-Jul-28 11:59N 38°24' E 012°24'31 9.7
2017-Jul-28 08:50N 38°26' E 011°45'40 9.5
2017-Jul-28 04:37N 38°28' E 010°54'30 9.5
2017-Jul-28 01:27N 38°29' E 010°16'12 9.1
2017-Jul-28 00:10N 38°30' E 010°01'2 9.2
2017-Jul-27 23:58N 38°30' E 009°58'5 9.3
2017-Jul-27 23:24N 38°30' E 009°52'4 8.8
2017-Jul-27 22:58N 38°31' E 009°47'4 8.4
2017-Jul-27 22:30N 38°32' E 009°42'4 8.4
2017-Jul-27 22:00N 38°34' E 009°37'4 8.3
2017-Jul-27 21:30N 38°36' E 009°32'4 8.6
2017-Jul-27 21:00N 38°37' E 009°27'4 8.8
2017-Jul-27 20:30N 38°39' E 009°22'5 9.0
2017-Jul-27 20:00N 38°41' E 009°17'5 9.1
2017-Jul-27 19:30N 38°43' E 009°12'4 9.1
2017-Jul-27 19:00N 38°45' E 009°07'5 9.4
2017-Jul-27 18:30N 38°47' E 009°01'5 9.6
2017-Jul-27 18:00N 38°48' E 008°55'5 9.3
2017-Jul-27 17:30N 38°48' E 008°49'4 8.8
2017-Jul-27 17:00N 38°48' E 008°43'222 8.1
2017-Jul-26 13:35N 38°54' E 003°59'2 9.6
2017-Jul-26 13:20N 38°54' E 003°56'3 9.5
2017-Jul-26 13:00N 38°54' E 003°52'5 9.5
2017-Jul-26 12:30N 38°55' E 003°45'5 9.6
2017-Jul-26 12:00N 38°55' E 003°39'5 9.6
2017-Jul-26 11:30N 38°55' E 003°33'5 9.6
2017-Jul-26 10:59N 38°56' E 003°27'  

Dump ship's entire track history